sensor_id;sensor_type;location;lat;lon;timestamp;P1;durP1;ratioP1;P2;durP2;ratioP2
28587;SDS011;15787;49.662;10.162;2024-03-25T00:00:02;6.82;;;4.68;;
28587;SDS011;15787;49.662;10.162;2024-03-25T00:02:42;11.25;;;3.92;;
28587;SDS011;15787;49.662;10.162;2024-03-25T00:05:13;8.70;;;4.85;;
28587;SDS011;15787;49.662;10.162;2024-03-25T00:07:49;8.80;;;5.05;;
28587;SDS011;15787;49.662;10.162;2024-03-25T00:10:20;10.25;;;5.00;;
28587;SDS011;15787;49.662;10.162;2024-03-25T00:12:52;8.98;;;5.22;;
28587;SDS011;15787;49.662;10.162;2024-03-25T00:15:26;6.53;;;4.22;;
28587;SDS011;15787;49.662;10.162;2024-03-25T00:17:58;7.47;;;4.57;;
28587;SDS011;15787;49.662;10.162;2024-03-25T00:20:29;8.93;;;4.80;;
28587;SDS011;15787;49.662;10.162;2024-03-25T00:23:03;6.82;;;5.00;;
28587;SDS011;15787;49.662;10.162;2024-03-25T00:25:35;6.85;;;4.07;;
28587;SDS011;15787;49.662;10.162;2024-03-25T00:28:07;7.43;;;4.25;;
28587;SDS011;15787;49.662;10.162;2024-03-25T00:30:38;9.75;;;4.30;;
28587;SDS011;15787;49.662;10.162;2024-03-25T00:33:11;7.07;;;4.13;;
28587;SDS011;15787;49.662;10.162;2024-03-25T00:35:42;7.43;;;3.67;;
28587;SDS011;15787;49.662;10.162;2024-03-25T00:38:21;9.93;;;4.65;;
28587;SDS011;15787;49.662;10.162;2024-03-25T00:40:53;8.00;;;4.20;;
28587;SDS011;15787;49.662;10.162;2024-03-25T00:43:25;9.23;;;4.43;;
28587;SDS011;15787;49.662;10.162;2024-03-25T00:45:56;6.80;;;4.10;;
28587;SDS011;15787;49.662;10.162;2024-03-25T00:48:29;6.78;;;4.15;;
28587;SDS011;15787;49.662;10.162;2024-03-25T00:51:00;7.75;;;3.83;;
28587;SDS011;15787;49.662;10.162;2024-03-25T00:53:34;7.65;;;3.42;;
28587;SDS011;15787;49.662;10.162;2024-03-25T00:56:05;8.63;;;4.38;;
28587;SDS011;15787;49.662;10.162;2024-03-25T00:58:37;9.32;;;3.92;;
28587;SDS011;15787;49.662;10.162;2024-03-25T01:01:09;6.32;;;4.07;;
28587;SDS011;15787;49.662;10.162;2024-03-25T01:03:42;6.75;;;3.92;;
28587;SDS011;15787;49.662;10.162;2024-03-25T01:06:13;10.38;;;4.03;;
28587;SDS011;15787;49.662;10.162;2024-03-25T01:08:47;6.35;;;4.00;;
28587;SDS011;15787;49.662;10.162;2024-03-25T01:11:18;6.10;;;3.55;;
28587;SDS011;15787;49.662;10.162;2024-03-25T01:13:52;9.93;;;4.03;;
28587;SDS011;15787;49.662;10.162;2024-03-25T01:16:23;8.40;;;3.80;;
28587;SDS011;15787;49.662;10.162;2024-03-25T01:18:55;7.88;;;3.58;;
28587;SDS011;15787;49.662;10.162;2024-03-25T01:21:27;9.80;;;3.85;;
28587;SDS011;15787;49.662;10.162;2024-03-25T01:24:00;7.90;;;3.55;;
28587;SDS011;15787;49.662;10.162;2024-03-25T01:26:32;6.25;;;3.53;;
28587;SDS011;15787;49.662;10.162;2024-03-25T01:29:04;11.60;;;4.00;;
28587;SDS011;15787;49.662;10.162;2024-03-25T01:31:35;7.13;;;3.90;;
28587;SDS011;15787;49.662;10.162;2024-03-25T01:34:07;7.68;;;3.90;;
28587;SDS011;15787;49.662;10.162;2024-03-25T01:36:39;9.18;;;4.15;;
28587;SDS011;15787;49.662;10.162;2024-03-25T01:39:13;7.97;;;4.10;;
28587;SDS011;15787;49.662;10.162;2024-03-25T01:41:45;5.80;;;3.70;;
28587;SDS011;15787;49.662;10.162;2024-03-25T01:44:17;11.55;;;4.30;;
28587;SDS011;15787;49.662;10.162;2024-03-25T01:46:49;9.27;;;4.43;;
28587;SDS011;15787;49.662;10.162;2024-03-25T01:49:22;10.02;;;4.60;;
28587;SDS011;15787;49.662;10.162;2024-03-25T01:51:54;9.05;;;4.93;;
28587;SDS011;15787;49.662;10.162;2024-03-25T01:54:30;7.43;;;4.38;;
28587;SDS011;15787;49.662;10.162;2024-03-25T01:57:02;8.80;;;4.50;;
28587;SDS011;15787;49.662;10.162;2024-03-25T01:59:35;8.80;;;4.53;;
28587;SDS011;15787;49.662;10.162;2024-03-25T02:02:07;7.97;;;4.93;;
28587;SDS011;15787;49.662;10.162;2024-03-25T02:04:41;10.88;;;4.82;;
28587;SDS011;15787;49.662;10.162;2024-03-25T02:07:13;7.47;;;4.47;;
28587;SDS011;15787;49.662;10.162;2024-03-25T02:09:47;8.02;;;4.72;;
28587;SDS011;15787;49.662;10.162;2024-03-25T02:12:19;10.10;;;5.05;;
28587;SDS011;15787;49.662;10.162;2024-03-25T02:14:52;11.60;;;4.97;;
28587;SDS011;15787;49.662;10.162;2024-03-25T02:17:23;9.95;;;4.65;;
28587;SDS011;15787;49.662;10.162;2024-03-25T02:19:56;8.52;;;4.80;;
28587;SDS011;15787;49.662;10.162;2024-03-25T02:22:27;5.80;;;4.25;;
28587;SDS011;15787;49.662;10.162;2024-03-25T02:25:02;12.82;;;4.97;;
28587;SDS011;15787;49.662;10.162;2024-03-25T02:27:38;14.43;;;5.07;;
28587;SDS011;15787;49.662;10.162;2024-03-25T02:30:12;16.88;;;5.43;;
28587;SDS011;15787;49.662;10.162;2024-03-25T02:32:44;10.55;;;5.13;;
28587;SDS011;15787;49.662;10.162;2024-03-25T02:35:17;9.77;;;4.55;;
28587;SDS011;15787;49.662;10.162;2024-03-25T02:37:49;7.15;;;4.43;;
28587;SDS011;15787;49.662;10.162;2024-03-25T02:40:22;10.65;;;5.45;;
28587;SDS011;15787;49.662;10.162;2024-03-25T02:42:56;12.90;;;4.82;;
28587;SDS011;15787;49.662;10.162;2024-03-25T02:45:28;9.30;;;5.20;;
28587;SDS011;15787;49.662;10.162;2024-03-25T02:48:00;7.32;;;5.03;;
28587;SDS011;15787;49.662;10.162;2024-03-25T02:50:32;12.90;;;5.25;;
28587;SDS011;15787;49.662;10.162;2024-03-25T02:53:04;10.73;;;5.20;;
28587;SDS011;15787;49.662;10.162;2024-03-25T02:55:35;9.98;;;4.90;;
28587;SDS011;15787;49.662;10.162;2024-03-25T02:58:09;8.65;;;4.60;;
28587;SDS011;15787;49.662;10.162;2024-03-25T03:00:41;7.57;;;4.47;;
28587;SDS011;15787;49.662;10.162;2024-03-25T03:03:13;10.02;;;4.78;;
28587;SDS011;15787;49.662;10.162;2024-03-25T03:05:44;7.95;;;4.97;;
28587;SDS011;15787;49.662;10.162;2024-03-25T03:08:17;10.80;;;4.63;;
28587;SDS011;15787;49.662;10.162;2024-03-25T03:10:49;10.90;;;5.20;;
28587;SDS011;15787;49.662;10.162;2024-03-25T03:13:22;8.18;;;4.40;;
28587;SDS011;15787;49.662;10.162;2024-03-25T03:15:54;8.20;;;4.15;;
28587;SDS011;15787;49.662;10.162;2024-03-25T03:18:26;9.20;;;5.10;;
28587;SDS011;15787;49.662;10.162;2024-03-25T03:20:58;6.55;;;3.97;;
28587;SDS011;15787;49.662;10.162;2024-03-25T03:23:30;10.70;;;4.57;;
28587;SDS011;15787;49.662;10.162;2024-03-25T03:26:02;6.50;;;4.25;;
28587;SDS011;15787;49.662;10.162;2024-03-25T03:28:35;8.90;;;4.35;;
28587;SDS011;15787;49.662;10.162;2024-03-25T03:31:07;10.82;;;5.43;;
28587;SDS011;15787;49.662;10.162;2024-03-25T03:33:39;10.10;;;5.05;;
28587;SDS011;15787;49.662;10.162;2024-03-25T03:36:11;12.75;;;5.22;;
28587;SDS011;15787;49.662;10.162;2024-03-25T03:38:43;10.40;;;5.07;;
28587;SDS011;15787;49.662;10.162;2024-03-25T03:41:15;14.40;;;4.97;;
28587;SDS011;15787;49.662;10.162;2024-03-25T03:43:48;9.90;;;4.95;;
28587;SDS011;15787;49.662;10.162;2024-03-25T03:46:20;11.55;;;5.60;;
28587;SDS011;15787;49.662;10.162;2024-03-25T03:48:52;11.18;;;5.65;;
28587;SDS011;15787;49.662;10.162;2024-03-25T03:51:23;13.57;;;5.82;;
28587;SDS011;15787;49.662;10.162;2024-03-25T03:53:56;8.45;;;4.97;;
28587;SDS011;15787;49.662;10.162;2024-03-25T03:56:27;11.18;;;6.07;;
28587;SDS011;15787;49.662;10.162;2024-03-25T03:59:01;8.20;;;4.57;;
28587;SDS011;15787;49.662;10.162;2024-03-25T04:01:32;8.77;;;4.45;;
28587;SDS011;15787;49.662;10.162;2024-03-25T04:04:05;9.80;;;5.20;;
28587;SDS011;15787;49.662;10.162;2024-03-25T04:06:36;10.63;;;4.88;;
28587;SDS011;15787;49.662;10.162;2024-03-25T04:09:11;10.60;;;5.60;;
28587;SDS011;15787;49.662;10.162;2024-03-25T04:11:42;11.57;;;5.40;;
28587;SDS011;15787;49.662;10.162;2024-03-25T04:14:15;10.43;;;5.38;;
28587;SDS011;15787;49.662;10.162;2024-03-25T04:16:47;11.10;;;4.93;;
28587;SDS011;15787;49.662;10.162;2024-03-25T04:19:21;12.68;;;5.43;;
28587;SDS011;15787;49.662;10.162;2024-03-25T04:21:57;9.88;;;5.28;;
28587;SDS011;15787;49.662;10.162;2024-03-25T04:24:31;9.45;;;5.82;;
28587;SDS011;15787;49.662;10.162;2024-03-25T04:27:02;10.07;;;5.55;;
28587;SDS011;15787;49.662;10.162;2024-03-25T04:29:36;8.05;;;4.35;;
28587;SDS011;15787;49.662;10.162;2024-03-25T04:32:07;11.40;;;5.32;;
28587;SDS011;15787;49.662;10.162;2024-03-25T04:34:45;9.10;;;4.95;;
28587;SDS011;15787;49.662;10.162;2024-03-25T04:37:16;10.27;;;5.00;;
28587;SDS011;15787;49.662;10.162;2024-03-25T04:39:47;10.43;;;6.18;;
28587;SDS011;15787;49.662;10.162;2024-03-25T04:42:22;8.60;;;4.78;;
28587;SDS011;15787;49.662;10.162;2024-03-25T04:44:56;16.33;;;5.75;;
28587;SDS011;15787;49.662;10.162;2024-03-25T04:47:28;13.25;;;5.50;;
28587;SDS011;15787;49.662;10.162;2024-03-25T04:50:04;9.30;;;5.20;;
28587;SDS011;15787;49.662;10.162;2024-03-25T04:52:38;11.90;;;4.93;;
28587;SDS011;15787;49.662;10.162;2024-03-25T04:55:10;10.73;;;5.70;;
28587;SDS011;15787;49.662;10.162;2024-03-25T04:57:42;10.82;;;5.20;;
28587;SDS011;15787;49.662;10.162;2024-03-25T05:00:14;14.57;;;4.85;;
28587;SDS011;15787;49.662;10.162;2024-03-25T05:02:46;7.28;;;4.70;;
28587;SDS011;15787;49.662;10.162;2024-03-25T05:05:17;12.20;;;5.50;;
28587;SDS011;15787;49.662;10.162;2024-03-25T05:07:48;9.20;;;4.55;;
28587;SDS011;15787;49.662;10.162;2024-03-25T05:10:20;12.10;;;5.05;;
28587;SDS011;15787;49.662;10.162;2024-03-25T05:12:51;13.63;;;4.60;;
28587;SDS011;15787;49.662;10.162;2024-03-25T05:15:24;8.45;;;4.32;;
28587;SDS011;15787;49.662;10.162;2024-03-25T05:17:59;11.02;;;5.00;;
28587;SDS011;15787;49.662;10.162;2024-03-25T05:20:30;9.45;;;5.07;;
28587;SDS011;15787;49.662;10.162;2024-03-25T05:23:01;9.60;;;4.70;;
28587;SDS011;15787;49.662;10.162;2024-03-25T05:25:34;9.05;;;4.10;;
28587;SDS011;15787;49.662;10.162;2024-03-25T05:28:05;7.65;;;4.13;;
28587;SDS011;15787;49.662;10.162;2024-03-25T05:30:38;8.75;;;3.53;;
28587;SDS011;15787;49.662;10.162;2024-03-25T05:33:09;8.85;;;4.18;;
28587;SDS011;15787;49.662;10.162;2024-03-25T05:35:40;8.40;;;4.40;;
28587;SDS011;15787;49.662;10.162;2024-03-25T05:38:11;10.48;;;4.25;;
28587;SDS011;15787;49.662;10.162;2024-03-25T05:40:45;8.60;;;4.10;;
28587;SDS011;15787;49.662;10.162;2024-03-25T05:43:17;6.57;;;4.15;;
28587;SDS011;15787;49.662;10.162;2024-03-25T05:45:53;9.93;;;4.82;;
28587;SDS011;15787;49.662;10.162;2024-03-25T05:48:25;10.90;;;4.28;;
28587;SDS011;15787;49.662;10.162;2024-03-25T05:50:57;10.15;;;4.78;;
28587;SDS011;15787;49.662;10.162;2024-03-25T05:53:32;12.90;;;6.32;;
28587;SDS011;15787;49.662;10.162;2024-03-25T05:56:03;9.70;;;4.78;;
28587;SDS011;15787;49.662;10.162;2024-03-25T05:58:34;10.43;;;5.70;;
28587;SDS011;15787;49.662;10.162;2024-03-25T06:01:07;10.43;;;5.07;;
28587;SDS011;15787;49.662;10.162;2024-03-25T06:03:38;11.65;;;5.47;;
28587;SDS011;15787;49.662;10.162;2024-03-25T06:06:10;11.68;;;5.43;;
28587;SDS011;15787;49.662;10.162;2024-03-25T06:08:41;10.88;;;6.60;;
28587;SDS011;15787;49.662;10.162;2024-03-25T06:11:12;17.10;;;7.18;;
28587;SDS011;15787;49.662;10.162;2024-03-25T06:13:45;12.20;;;5.68;;
28587;SDS011;15787;49.662;10.162;2024-03-25T06:16:18;14.15;;;6.53;;
28587;SDS011;15787;49.662;10.162;2024-03-25T06:18:49;12.02;;;6.00;;
28587;SDS011;15787;49.662;10.162;2024-03-25T06:21:20;12.38;;;5.90;;
28587;SDS011;15787;49.662;10.162;2024-03-25T06:23:51;11.55;;;6.07;;
28587;SDS011;15787;49.662;10.162;2024-03-25T06:26:23;11.65;;;6.38;;
28587;SDS011;15787;49.662;10.162;2024-03-25T06:28:56;10.18;;;6.10;;
28587;SDS011;15787;49.662;10.162;2024-03-25T06:31:29;14.73;;;6.38;;
28587;SDS011;15787;49.662;10.162;2024-03-25T06:34:30;12.10;;;6.25;;
28587;SDS011;15787;49.662;10.162;2024-03-25T06:37:04;13.88;;;6.72;;
28587;SDS011;15787;49.662;10.162;2024-03-25T06:39:36;13.40;;;7.57;;
28587;SDS011;15787;49.662;10.162;2024-03-25T06:42:07;18.75;;;6.63;;
28587;SDS011;15787;49.662;10.162;2024-03-25T06:44:38;18.30;;;7.55;;
28587;SDS011;15787;49.662;10.162;2024-03-25T06:47:11;16.55;;;7.53;;
28587;SDS011;15787;49.662;10.162;2024-03-25T06:49:42;13.43;;;7.30;;
28587;SDS011;15787;49.662;10.162;2024-03-25T06:52:13;17.40;;;7.28;;
28587;SDS011;15787;49.662;10.162;2024-03-25T06:54:44;15.88;;;7.68;;
28587;SDS011;15787;49.662;10.162;2024-03-25T06:57:15;14.55;;;8.07;;
28587;SDS011;15787;49.662;10.162;2024-03-25T06:59:47;16.98;;;8.10;;
28587;SDS011;15787;49.662;10.162;2024-03-25T07:02:19;18.70;;;6.93;;
28587;SDS011;15787;49.662;10.162;2024-03-25T07:04:50;13.70;;;7.72;;
28587;SDS011;15787;49.662;10.162;2024-03-25T07:07:22;15.55;;;7.97;;
28587;SDS011;15787;49.662;10.162;2024-03-25T07:09:53;15.73;;;8.10;;
28587;SDS011;15787;49.662;10.162;2024-03-25T07:12:25;17.27;;;7.45;;
28587;SDS011;15787;49.662;10.162;2024-03-25T07:14:57;14.70;;;8.18;;
28587;SDS011;15787;49.662;10.162;2024-03-25T07:17:33;19.77;;;8.70;;
28587;SDS011;15787;49.662;10.162;2024-03-25T07:20:05;13.85;;;7.93;;
28587;SDS011;15787;49.662;10.162;2024-03-25T07:22:39;15.13;;;7.22;;
28587;SDS011;15787;49.662;10.162;2024-03-25T07:25:11;13.15;;;7.93;;
28587;SDS011;15787;49.662;10.162;2024-03-25T07:27:43;15.63;;;7.03;;
28587;SDS011;15787;49.662;10.162;2024-03-25T07:30:15;17.50;;;7.80;;
28587;SDS011;15787;49.662;10.162;2024-03-25T07:32:48;13.68;;;7.38;;
28587;SDS011;15787;49.662;10.162;2024-03-25T07:35:19;15.52;;;6.95;;
28587;SDS011;15787;49.662;10.162;2024-03-25T07:37:51;14.70;;;6.95;;
28587;SDS011;15787;49.662;10.162;2024-03-25T07:40:23;12.25;;;6.65;;
28587;SDS011;15787;49.662;10.162;2024-03-25T07:42:55;9.88;;;5.60;;
28587;SDS011;15787;49.662;10.162;2024-03-25T07:45:26;14.60;;;6.35;;
28587;SDS011;15787;49.662;10.162;2024-03-25T07:47:58;9.68;;;4.95;;
28587;SDS011;15787;49.662;10.162;2024-03-25T07:50:30;11.43;;;5.18;;
28587;SDS011;15787;49.662;10.162;2024-03-25T07:53:02;14.05;;;6.65;;
28587;SDS011;15787;49.662;10.162;2024-03-25T07:55:34;18.40;;;6.00;;
28587;SDS011;15787;49.662;10.162;2024-03-25T07:58:06;13.40;;;6.30;;
28587;SDS011;15787;49.662;10.162;2024-03-25T08:00:37;10.57;;;5.05;;
28587;SDS011;15787;49.662;10.162;2024-03-25T08:03:13;11.43;;;5.47;;
28587;SDS011;15787;49.662;10.162;2024-03-25T08:05:44;14.57;;;4.95;;
28587;SDS011;15787;49.662;10.162;2024-03-25T08:08:16;8.65;;;4.93;;
28587;SDS011;15787;49.662;10.162;2024-03-25T08:10:50;9.05;;;4.05;;
28587;SDS011;15787;49.662;10.162;2024-03-25T08:13:21;11.18;;;5.32;;
28587;SDS011;15787;49.662;10.162;2024-03-25T08:15:53;12.40;;;7.03;;
28587;SDS011;15787;49.662;10.162;2024-03-25T08:18:26;10.25;;;4.75;;
28587;SDS011;15787;49.662;10.162;2024-03-25T08:20:59;13.75;;;4.00;;
28587;SDS011;15787;49.662;10.162;2024-03-25T08:23:31;10.23;;;4.13;;
28587;SDS011;15787;49.662;10.162;2024-03-25T08:26:02;8.70;;;5.00;;
28587;SDS011;15787;49.662;10.162;2024-03-25T08:28:34;8.20;;;4.20;;
28587;SDS011;15787;49.662;10.162;2024-03-25T08:31:05;8.02;;;3.30;;
28587;SDS011;15787;49.662;10.162;2024-03-25T08:33:38;7.95;;;3.50;;
28587;SDS011;15787;49.662;10.162;2024-03-25T08:36:12;8.63;;;3.45;;
28587;SDS011;15787;49.662;10.162;2024-03-25T08:38:52;13.13;;;3.33;;
28587;SDS011;15787;49.662;10.162;2024-03-25T08:41:24;10.77;;;3.88;;
28587;SDS011;15787;49.662;10.162;2024-03-25T08:43:57;10.55;;;4.13;;
28587;SDS011;15787;49.662;10.162;2024-03-25T08:46:29;14.30;;;4.07;;
28587;SDS011;15787;49.662;10.162;2024-03-25T08:49:02;8.25;;;3.33;;
28587;SDS011;15787;49.662;10.162;2024-03-25T08:51:33;9.82;;;3.67;;
28587;SDS011;15787;49.662;10.162;2024-03-25T08:54:05;6.95;;;3.67;;
28587;SDS011;15787;49.662;10.162;2024-03-25T08:56:37;7.68;;;3.00;;
28587;SDS011;15787;49.662;10.162;2024-03-25T08:59:09;7.85;;;3.33;;
28587;SDS011;15787;49.662;10.162;2024-03-25T09:01:40;9.85;;;4.20;;
28587;SDS011;15787;49.662;10.162;2024-03-25T09:04:13;8.57;;;3.28;;
28587;SDS011;15787;49.662;10.162;2024-03-25T09:06:44;4.53;;;2.83;;
28587;SDS011;15787;49.662;10.162;2024-03-25T09:09:17;9.13;;;3.03;;
28587;SDS011;15787;49.662;10.162;2024-03-25T09:12:21;10.18;;;2.97;;
28587;SDS011;15787;49.662;10.162;2024-03-25T09:14:54;7.88;;;2.28;;
28587;SDS011;15787;49.662;10.162;2024-03-25T09:17:25;8.90;;;2.40;;
28587;SDS011;15787;49.662;10.162;2024-03-25T09:19:59;7.88;;;2.85;;
28587;SDS011;15787;49.662;10.162;2024-03-25T09:22:31;6.65;;;2.30;;
28587;SDS011;15787;49.662;10.162;2024-03-25T09:25:02;8.50;;;2.03;;
28587;SDS011;15787;49.662;10.162;2024-03-25T09:27:34;4.43;;;2.00;;
28587;SDS011;15787;49.662;10.162;2024-03-25T09:30:06;6.32;;;2.28;;
28587;SDS011;15787;49.662;10.162;2024-03-25T09:32:38;5.85;;;2.58;;
28587;SDS011;15787;49.662;10.162;2024-03-25T09:35:11;6.90;;;2.17;;
28587;SDS011;15787;49.662;10.162;2024-03-25T09:37:43;6.32;;;2.22;;
28587;SDS011;15787;49.662;10.162;2024-03-25T09:40:15;5.65;;;2.10;;
28587;SDS011;15787;49.662;10.162;2024-03-25T09:42:47;7.45;;;2.40;;
28587;SDS011;15787;49.662;10.162;2024-03-25T09:45:19;6.28;;;2.30;;
28587;SDS011;15787;49.662;10.162;2024-03-25T09:47:55;6.82;;;2.28;;
28587;SDS011;15787;49.662;10.162;2024-03-25T09:50:28;4.68;;;2.40;;
28587;SDS011;15787;49.662;10.162;2024-03-25T09:53:00;8.85;;;3.20;;
28587;SDS011;15787;49.662;10.162;2024-03-25T09:55:32;9.43;;;2.97;;
28587;SDS011;15787;49.662;10.162;2024-03-25T09:58:03;4.82;;;2.20;;
28587;SDS011;15787;49.662;10.162;2024-03-25T10:00:36;7.50;;;2.58;;
28587;SDS011;15787;49.662;10.162;2024-03-25T10:03:07;4.15;;;2.40;;
28587;SDS011;15787;49.662;10.162;2024-03-25T10:05:40;4.70;;;2.58;;
28587;SDS011;15787;49.662;10.162;2024-03-25T10:08:13;5.32;;;2.83;;
28587;SDS011;15787;49.662;10.162;2024-03-25T10:10:45;10.23;;;2.97;;
28587;SDS011;15787;49.662;10.162;2024-03-25T10:13:18;5.15;;;2.10;;
28587;SDS011;15787;49.662;10.162;2024-03-25T10:15:49;6.40;;;2.42;;
28587;SDS011;15787;49.662;10.162;2024-03-25T10:18:21;5.80;;;2.50;;
28587;SDS011;15787;49.662;10.162;2024-03-25T10:20:54;5.63;;;2.72;;
28587;SDS011;15787;49.662;10.162;2024-03-25T10:23:26;9.27;;;2.65;;
28587;SDS011;15787;49.662;10.162;2024-03-25T10:25:58;4.50;;;2.63;;
28587;SDS011;15787;49.662;10.162;2024-03-25T10:28:30;5.40;;;2.45;;
28587;SDS011;15787;49.662;10.162;2024-03-25T10:31:03;6.93;;;2.33;;
28587;SDS011;15787;49.662;10.162;2024-03-25T10:33:35;8.77;;;2.63;;
28587;SDS011;15787;49.662;10.162;2024-03-25T10:36:09;6.60;;;2.28;;
28587;SDS011;15787;49.662;10.162;2024-03-25T10:38:42;5.30;;;2.50;;
28587;SDS011;15787;49.662;10.162;2024-03-25T10:41:17;6.20;;;2.55;;
28587;SDS011;15787;49.662;10.162;2024-03-25T10:43:52;5.05;;;2.55;;
28587;SDS011;15787;49.662;10.162;2024-03-25T10:46:25;7.85;;;2.60;;
28587;SDS011;15787;49.662;10.162;2024-03-25T10:48:58;8.70;;;2.63;;
28587;SDS011;15787;49.662;10.162;2024-03-25T10:51:39;5.47;;;2.17;;
28587;SDS011;15787;49.662;10.162;2024-03-25T10:54:11;5.13;;;1.55;;
28587;SDS011;15787;49.662;10.162;2024-03-25T10:56:45;3.92;;;1.67;;
28587;SDS011;15787;49.662;10.162;2024-03-25T10:59:22;5.90;;;1.90;;
28587;SDS011;15787;49.662;10.162;2024-03-25T11:01:56;6.57;;;2.22;;
28587;SDS011;15787;49.662;10.162;2024-03-25T11:04:28;5.38;;;1.67;;
28587;SDS011;15787;49.662;10.162;2024-03-25T11:07:10;9.25;;;3.15;;
28587;SDS011;15787;49.662;10.162;2024-03-25T11:09:43;5.68;;;2.38;;
28587;SDS011;15787;49.662;10.162;2024-03-25T11:12:14;4.72;;;1.90;;
28587;SDS011;15787;49.662;10.162;2024-03-25T11:14:56;5.25;;;1.65;;
28587;SDS011;15787;49.662;10.162;2024-03-25T11:17:27;7.38;;;2.00;;
28587;SDS011;15787;49.662;10.162;2024-03-25T11:20:11;4.38;;;1.83;;
28587;SDS011;15787;49.662;10.162;2024-03-25T11:22:49;4.03;;;2.03;;
28587;SDS011;15787;49.662;10.162;2024-03-25T11:25:21;7.72;;;2.00;;
28587;SDS011;15787;49.662;10.162;2024-03-25T11:27:52;7.10;;;2.20;;
28587;SDS011;15787;49.662;10.162;2024-03-25T11:30:24;3.55;;;2.05;;
28587;SDS011;15787;49.662;10.162;2024-03-25T11:36:43;5.07;;;2.03;;
28587;SDS011;15787;49.662;10.162;2024-03-25T11:39:38;4.10;;;1.83;;
28587;SDS011;15787;49.662;10.162;2024-03-25T11:42:10;6.25;;;1.90;;
28587;SDS011;15787;49.662;10.162;2024-03-25T11:44:44;8.32;;;3.45;;
28587;SDS011;15787;49.662;10.162;2024-03-25T11:47:16;4.90;;;2.25;;
28587;SDS011;15787;49.662;10.162;2024-03-25T11:49:47;3.55;;;1.60;;
28587;SDS011;15787;49.662;10.162;2024-03-25T11:52:18;3.20;;;1.70;;
28587;SDS011;15787;49.662;10.162;2024-03-25T11:54:55;4.00;;;1.88;;
28587;SDS011;15787;49.662;10.162;2024-03-25T11:57:28;7.95;;;2.00;;
28587;SDS011;15787;49.662;10.162;2024-03-25T12:00:04;8.35;;;2.25;;
28587;SDS011;15787;49.662;10.162;2024-03-25T12:02:43;3.45;;;1.70;;
28587;SDS011;15787;49.662;10.162;2024-03-25T12:05:21;3.92;;;1.90;;
28587;SDS011;15787;49.662;10.162;2024-03-25T12:07:54;7.85;;;1.92;;
28587;SDS011;15787;49.662;10.162;2024-03-25T12:10:27;3.53;;;1.70;;
28587;SDS011;15787;49.662;10.162;2024-03-25T12:13:19;6.28;;;1.70;;
28587;SDS011;15787;49.662;10.162;2024-03-25T12:15:53;6.97;;;1.77;;
28587;SDS011;15787;49.662;10.162;2024-03-25T12:18:25;6.28;;;1.80;;
28587;SDS011;15787;49.662;10.162;2024-03-25T12:21:04;3.47;;;1.77;;
28587;SDS011;15787;49.662;10.162;2024-03-25T12:23:35;6.53;;;1.70;;
28587;SDS011;15787;49.662;10.162;2024-03-25T12:26:09;3.28;;;1.70;;
28587;SDS011;15787;49.662;10.162;2024-03-25T12:28:42;4.32;;;1.48;;
28587;SDS011;15787;49.662;10.162;2024-03-25T12:31:14;4.20;;;1.60;;
28587;SDS011;15787;49.662;10.162;2024-03-25T12:33:45;1.90;;;1.38;;
28587;SDS011;15787;49.662;10.162;2024-03-25T12:36:17;5.20;;;1.95;;
28587;SDS011;15787;49.662;10.162;2024-03-25T12:38:55;5.38;;;2.60;;
28587;SDS011;15787;49.662;10.162;2024-03-25T12:41:28;3.28;;;2.00;;
28587;SDS011;15787;49.662;10.162;2024-03-25T12:44:00;3.88;;;1.77;;
28587;SDS011;15787;49.662;10.162;2024-03-25T12:46:31;4.22;;;2.10;;
28587;SDS011;15787;49.662;10.162;2024-03-25T12:49:03;4.32;;;1.60;;
28587;SDS011;15787;49.662;10.162;2024-03-25T12:51:35;8.00;;;1.63;;
28587;SDS011;15787;49.662;10.162;2024-03-25T12:54:06;3.65;;;1.52;;
28587;SDS011;15787;49.662;10.162;2024-03-25T12:56:40;3.55;;;1.80;;
28587;SDS011;15787;49.662;10.162;2024-03-25T12:59:12;3.63;;;1.60;;
28587;SDS011;15787;49.662;10.162;2024-03-25T13:01:49;3.63;;;1.77;;
28587;SDS011;15787;49.662;10.162;2024-03-25T13:04:21;5.53;;;1.55;;
28587;SDS011;15787;49.662;10.162;2024-03-25T13:06:55;5.53;;;1.70;;
28587;SDS011;15787;49.662;10.162;2024-03-25T13:09:27;4.72;;;1.73;;
28587;SDS011;15787;49.662;10.162;2024-03-25T13:12:01;3.28;;;1.67;;
28587;SDS011;15787;49.662;10.162;2024-03-25T13:14:33;3.08;;;1.77;;
28587;SDS011;15787;49.662;10.162;2024-03-25T13:17:05;3.97;;;1.77;;
28587;SDS011;15787;49.662;10.162;2024-03-25T13:19:39;4.82;;;2.33;;
28587;SDS011;15787;49.662;10.162;2024-03-25T13:22:11;4.22;;;1.65;;
28587;SDS011;15787;49.662;10.162;2024-03-25T13:24:43;4.20;;;1.60;;
28587;SDS011;15787;49.662;10.162;2024-03-25T13:27:16;3.28;;;1.52;;
28587;SDS011;15787;49.662;10.162;2024-03-25T13:29:48;5.88;;;1.90;;
28587;SDS011;15787;49.662;10.162;2024-03-25T13:32:20;5.28;;;1.73;;
28587;SDS011;15787;49.662;10.162;2024-03-25T13:34:52;4.10;;;1.77;;
28587;SDS011;15787;49.662;10.162;2024-03-25T13:37:24;4.03;;;2.10;;
28587;SDS011;15787;49.662;10.162;2024-03-25T13:40:01;4.40;;;1.63;;
28587;SDS011;15787;49.662;10.162;2024-03-25T13:45:28;2.67;;;1.50;;
28587;SDS011;15787;49.662;10.162;2024-03-25T13:48:11;4.60;;;1.42;;
28587;SDS011;15787;49.662;10.162;2024-03-25T13:50:54;3.28;;;1.65;;
28587;SDS011;15787;49.662;10.162;2024-03-25T13:53:26;3.97;;;1.73;;
28587;SDS011;15787;49.662;10.162;2024-03-25T14:05:28;4.35;;;1.70;;
28587;SDS011;15787;49.662;10.162;2024-03-25T14:08:00;2.00;;;1.38;;
28587;SDS011;15787;49.662;10.162;2024-03-25T14:10:32;3.45;;;1.58;;
28587;SDS011;15787;49.662;10.162;2024-03-25T14:13:04;4.18;;;1.75;;
28587;SDS011;15787;49.662;10.162;2024-03-25T14:15:38;8.23;;;1.75;;
28587;SDS011;15787;49.662;10.162;2024-03-25T14:18:10;3.33;;;1.77;;
28587;SDS011;15787;49.662;10.162;2024-03-25T14:20:42;2.47;;;1.33;;
28587;SDS011;15787;49.662;10.162;2024-03-25T14:23:13;3.60;;;1.60;;
28587;SDS011;15787;49.662;10.162;2024-03-25T14:25:48;6.40;;;1.95;;
28587;SDS011;15787;49.662;10.162;2024-03-25T14:28:20;4.07;;;2.08;;
28587;SDS011;15787;49.662;10.162;2024-03-25T14:30:53;5.38;;;2.10;;
28587;SDS011;15787;49.662;10.162;2024-03-25T14:33:24;5.93;;;1.80;;
28587;SDS011;15787;49.662;10.162;2024-03-25T14:35:56;6.90;;;1.70;;
28587;SDS011;15787;49.662;10.162;2024-03-25T14:38:28;4.22;;;2.33;;
28587;SDS011;15787;49.662;10.162;2024-03-25T14:40:59;4.82;;;1.80;;
28587;SDS011;15787;49.662;10.162;2024-03-25T14:43:34;5.50;;;1.98;;
28587;SDS011;15787;49.662;10.162;2024-03-25T14:46:07;4.55;;;1.88;;
28587;SDS011;15787;49.662;10.162;2024-03-25T14:48:39;2.95;;;1.50;;
28587;SDS011;15787;49.662;10.162;2024-03-25T14:51:11;4.53;;;1.75;;
28587;SDS011;15787;49.662;10.162;2024-03-25T14:54:00;4.03;;;1.80;;
28587;SDS011;15787;49.662;10.162;2024-03-25T14:56:41;3.20;;;1.60;;
28587;SDS011;15787;49.662;10.162;2024-03-25T15:03:49;3.72;;;1.60;;
28587;SDS011;15787;49.662;10.162;2024-03-25T15:06:20;2.55;;;1.63;;
28587;SDS011;15787;49.662;10.162;2024-03-25T15:08:52;3.47;;;1.40;;
28587;SDS011;15787;49.662;10.162;2024-03-25T15:11:23;2.70;;;1.75;;
28587;SDS011;15787;49.662;10.162;2024-03-25T15:13:54;5.40;;;1.55;;
28587;SDS011;15787;49.662;10.162;2024-03-25T15:16:26;6.05;;;1.58;;
28587;SDS011;15787;49.662;10.162;2024-03-25T15:19:01;5.00;;;2.25;;
28587;SDS011;15787;49.662;10.162;2024-03-25T15:21:32;3.42;;;1.55;;
28587;SDS011;15787;49.662;10.162;2024-03-25T15:24:04;5.68;;;1.70;;